CheckWX is a tool to help pilots better visualize weather data.  It is not intended as a substitute for an official pre-flight weather briefing.

10:07:14 UTC

KTOP TAF
Philip Billard Municipal Airport
Topeka, Kansas, USA
KTOP 260520Z 2606/2706 20004KT P6SM VCSH SCT080 BKN100 FM260800 19007KT P6SM SCT250

Jun-26@
06:00 UTC

Jun-26 @ 06:00 UTC

Jun-26@
08:00 UTC

Jun-26 @ 08:00 UTC

KTOP 260520Z 2606/2706 20004KT P6SM VCSH SCT080 BKN100

Expired

Wind
  • 200° at 4 KTS
Cloud Levels
  • Scattered at 8,000' AGL
  • Broken at 10,000' AGL

Jun-26@
08:00 UTC

Jun-26 @ 08:00 UTC

Jun-27@
06:00 UTC

Jun-27 @ 06:00 UTC

FM260800 19007KT P6SM SCT250

From

From Standard forecast or significant change

Wind
  • 190° at 7 KTS
Cloud Levels
  • Scattered at 25,000' AGL